Cumberland Center, Maine
Current Conditions -  °F | °C
As of 3:51 PM on Tuesday 25 Nov 2014 (Local Time) from KPWM Reporting Station
Broken Clouds Broken Clouds  
Wind Chill: 57°   Ceiling: 15000
Heat Index: 57°   Visibility: 10mi
Dew Point: 25°   Wind: 9mph
Humidity: 29%   Direction: 250°WSW
Pressure: 29.86"   Gusts: NA
Location:  43.8°N, 70.25°W
Report Text: KPWM 252051Z 25008KT 10SM BKN150 14/M04 A2986 RMK AO2 SLP110 T01391039 53015
Loading
Personal Weather Stations






























Interactive Weather Map New forecast layout! Learn more

10-Day Weather Forecast

Advertisements
Track Severe Weather on mobile